Aérodrome :
LOGIN :

S'inscrire | Disclaimer

   EN    FR    IT 

 










Légende :    VFR   VFR Marginal   IFR   IFR Intensif   IFR Très Intensif
Visi : 
Plafond : 
>= 8 km
>= 3000ft
5 à 8 km
1000 à 3000 ft
1500m à 5 km
500 à 1000 ft
800 à 1500m
200 à 500 ft
< 800m
< 200 ft
Symboles :   Orages  Brouillard  Fortes neiges  Fortes précipitations  Vent > 20 kt
SIGMETs :   Divers  Orages  Givrage  Turbulence  Onde Orograph.  Cendres Volcan.






- Altitude de l'aérodrome : 587 ft
- Code IATA : XCR


LFOK - Chalons Vatry

DERNIER METAR :
  • 250400Z AUTO 05006KT 0400 0300 R10/0375N R28/0650U FZFG VV/// M03/M03 Q1021 TEMPO 0300 FG

METARs EXPIRÉS :
  • 250330Z AUTO 05009KT 0400 0350 R10/0550U R28/0500N FZFG VV/// M01/M01 Q1021 TEMPO 0300 FG
  • 250300Z AUTO 04008KT 2800 BR FEW002 M02/M02 Q1021 TEMPO 0300 FG VV///
  • 250230Z AUTO VRB02KT 3800 BR NSC M01/M02 Q1021 TEMPO 0300 FG VV///
  • 250200Z AUTO 09003KT 3900 BR NSC M00/M00 Q1021 TEMPO 0300 FG VV///
  • 250130Z AUTO 03005KT 3200 BR NSC M01/M01 Q1021

TAF TAF LFOK
Valide du 25 à 00h jusqu'au 26 à 00h UTC


242300Z 2500/2524 13003KT 4000 BR NSC
BECMG 2500/2503 2000 BR OVC003
TEMPO 2503/2512 0300 FG VV///



MET'MAP, la Météo Aéronautique d'un coup d'oeil ! - Copyright ORBIFLY Décembre 2007 - Disclaimer

ORBIFLY MET'MAP TEAM :

Programmation & Développement : Alexandra Zaïnal
Sur une idée originale de : Baudouin d'Aumeries
Assistance à la programmation : Marc-Olivier Méhu
Soutien technique & logistique : Manuel Goepfert

Contact : metmap@orbifly.com




SOURCES & CREDITS :

   NOAA